sensor_id;sensor_type;location;lat;lon;timestamp;P1;durP1;ratioP1;P2;durP2;ratioP2
22298;SDS011;11317;51.072;17.036;2022-09-30T00:02:11;22.77;;;11.10;;
22298;SDS011;11317;51.072;17.036;2022-09-30T00:04:38;19.08;;;10.02;;
22298;SDS011;11317;51.072;17.036;2022-09-30T00:07:05;21.70;;;11.45;;
22298;SDS011;11317;51.072;17.036;2022-09-30T00:09:31;19.20;;;11.18;;
22298;SDS011;11317;51.072;17.036;2022-09-30T00:11:57;22.88;;;11.75;;
22298;SDS011;11317;51.072;17.036;2022-09-30T00:14:23;18.75;;;10.85;;
22298;SDS011;11317;51.072;17.036;2022-09-30T00:16:50;21.02;;;11.57;;
22298;SDS011;11317;51.072;17.036;2022-09-30T00:19:15;21.05;;;11.27;;
22298;SDS011;11317;51.072;17.036;2022-09-30T00:21:42;20.92;;;11.75;;
22298;SDS011;11317;51.072;17.036;2022-09-30T00:24:07;25.63;;;12.32;;
22298;SDS011;11317;51.072;17.036;2022-09-30T00:26:34;21.25;;;10.73;;
22298;SDS011;11317;51.072;17.036;2022-09-30T00:29:00;16.80;;;10.25;;
22298;SDS011;11317;51.072;17.036;2022-09-30T00:31:29;22.60;;;11.25;;
22298;SDS011;11317;51.072;17.036;2022-09-30T00:33:57;21.50;;;10.88;;
22298;SDS011;11317;51.072;17.036;2022-09-30T00:38:58;18.75;;;10.88;;
22298;SDS011;11317;51.072;17.036;2022-09-30T00:41:24;20.52;;;10.25;;
22298;SDS011;11317;51.072;17.036;2022-09-30T00:43:51;18.42;;;10.43;;
22298;SDS011;11317;51.072;17.036;2022-09-30T00:46:31;19.55;;;10.38;;
22298;SDS011;11317;51.072;17.036;2022-09-30T00:49:05;24.90;;;10.57;;
22298;SDS011;11317;51.072;17.036;2022-09-30T00:51:38;17.67;;;9.65;;
22298;SDS011;11317;51.072;17.036;2022-09-30T00:54:17;18.30;;;10.10;;
22298;SDS011;11317;51.072;17.036;2022-09-30T00:56:54;22.45;;;10.82;;
22298;SDS011;11317;51.072;17.036;2022-09-30T00:59:57;22.08;;;10.98;;
22298;SDS011;11317;51.072;17.036;2022-09-30T01:02:16;20.85;;;10.63;;
22298;SDS011;11317;51.072;17.036;2022-09-30T01:04:42;22.15;;;11.13;;
22298;SDS011;11317;51.072;17.036;2022-09-30T01:07:09;21.63;;;10.85;;
22298;SDS011;11317;51.072;17.036;2022-09-30T01:09:37;23.20;;;12.18;;
22298;SDS011;11317;51.072;17.036;2022-09-30T01:12:09;21.17;;;11.57;;
22298;SDS011;11317;51.072;17.036;2022-09-30T01:14:38;19.63;;;10.63;;
22298;SDS011;11317;51.072;17.036;2022-09-30T01:17:10;18.77;;;11.05;;
22298;SDS011;11317;51.072;17.036;2022-09-30T01:25:46;18.02;;;10.98;;
22298;SDS011;11317;51.072;17.036;2022-09-30T01:36:03;23.08;;;12.27;;
22298;SDS011;11317;51.072;17.036;2022-09-30T01:38:44;21.60;;;10.98;;
22298;SDS011;11317;51.072;17.036;2022-09-30T01:46:51;19.88;;;11.52;;
22298;SDS011;11317;51.072;17.036;2022-09-30T01:49:22;20.05;;;11.57;;
22298;SDS011;11317;51.072;17.036;2022-09-30T01:51:58;23.85;;;11.35;;
22298;SDS011;11317;51.072;17.036;2022-09-30T01:54:41;17.33;;;10.73;;
22298;SDS011;11317;51.072;17.036;2022-09-30T01:57:16;20.58;;;11.23;;
22298;SDS011;11317;51.072;17.036;2022-09-30T01:59:45;19.73;;;11.60;;
22298;SDS011;11317;51.072;17.036;2022-09-30T02:02:51;21.30;;;12.10;;
22298;SDS011;11317;51.072;17.036;2022-09-30T02:08:06;20.75;;;11.95;;
22298;SDS011;11317;51.072;17.036;2022-09-30T02:10:50;22.88;;;12.57;;
22298;SDS011;11317;51.072;17.036;2022-09-30T02:16:14;20.98;;;11.52;;
22298;SDS011;11317;51.072;17.036;2022-09-30T02:18:47;21.80;;;11.43;;
22298;SDS011;11317;51.072;17.036;2022-09-30T02:21:19;20.60;;;10.90;;
22298;SDS011;11317;51.072;17.036;2022-09-30T02:23:50;26.48;;;12.07;;
22298;SDS011;11317;51.072;17.036;2022-09-30T02:26:27;22.25;;;12.15;;
22298;SDS011;11317;51.072;17.036;2022-09-30T02:29:00;18.27;;;10.85;;
22298;SDS011;11317;51.072;17.036;2022-09-30T02:31:35;19.38;;;10.50;;
22298;SDS011;11317;51.072;17.036;2022-09-30T02:34:10;22.23;;;11.30;;
22298;SDS011;11317;51.072;17.036;2022-09-30T02:42:18;20.20;;;10.65;;
22298;SDS011;11317;51.072;17.036;2022-09-30T02:44:48;22.48;;;11.65;;
22298;SDS011;11317;51.072;17.036;2022-09-30T02:50:35;20.17;;;11.38;;
22298;SDS011;11317;51.072;17.036;2022-09-30T02:58:47;21.58;;;11.10;;
22298;SDS011;11317;51.072;17.036;2022-09-30T03:01:15;25.35;;;11.77;;
22298;SDS011;11317;51.072;17.036;2022-09-30T03:03:44;21.48;;;11.10;;
22298;SDS011;11317;51.072;17.036;2022-09-30T03:06:24;21.05;;;10.57;;
22298;SDS011;11317;51.072;17.036;2022-09-30T03:08:52;20.23;;;11.80;;
22298;SDS011;11317;51.072;17.036;2022-09-30T03:11:19;21.05;;;11.23;;
22298;SDS011;11317;51.072;17.036;2022-09-30T03:22:29;17.58;;;10.10;;
22298;SDS011;11317;51.072;17.036;2022-09-30T03:30:20;19.20;;;10.63;;
22298;SDS011;11317;51.072;17.036;2022-09-30T03:32:59;19.58;;;10.77;;
22298;SDS011;11317;51.072;17.036;2022-09-30T03:38:33;17.25;;;10.80;;
22298;SDS011;11317;51.072;17.036;2022-09-30T03:41:19;20.98;;;11.07;;
22298;SDS011;11317;51.072;17.036;2022-09-30T03:46:34;16.60;;;10.15;;
22298;SDS011;11317;51.072;17.036;2022-09-30T03:49:23;20.90;;;10.88;;
22298;SDS011;11317;51.072;17.036;2022-09-30T03:51:55;25.70;;;12.02;;
22298;SDS011;11317;51.072;17.036;2022-09-30T03:54:23;21.63;;;10.57;;
22298;SDS011;11317;51.072;17.036;2022-09-30T03:56:48;21.10;;;11.77;;
22298;SDS011;11317;51.072;17.036;2022-09-30T04:01:49;19.00;;;10.77;;
22298;SDS011;11317;51.072;17.036;2022-09-30T04:04:16;24.42;;;11.13;;
22298;SDS011;11317;51.072;17.036;2022-09-30T04:06:42;20.15;;;11.32;;
22298;SDS011;11317;51.072;17.036;2022-09-30T04:09:08;21.77;;;11.85;;
22298;SDS011;11317;51.072;17.036;2022-09-30T04:11:34;21.27;;;11.60;;
22298;SDS011;11317;51.072;17.036;2022-09-30T04:14:00;20.58;;;11.32;;
22298;SDS011;11317;51.072;17.036;2022-09-30T04:16:28;22.42;;;10.40;;
22298;SDS011;11317;51.072;17.036;2022-09-30T04:18:54;20.88;;;11.52;;
22298;SDS011;11317;51.072;17.036;2022-09-30T04:21:21;22.95;;;11.43;;
22298;SDS011;11317;51.072;17.036;2022-09-30T04:23:48;18.88;;;10.15;;
22298;SDS011;11317;51.072;17.036;2022-09-30T04:26:14;16.80;;;10.10;;
22298;SDS011;11317;51.072;17.036;2022-09-30T04:28:42;20.58;;;10.43;;
22298;SDS011;11317;51.072;17.036;2022-09-30T04:31:08;20.20;;;11.25;;
22298;SDS011;11317;51.072;17.036;2022-09-30T04:33:36;22.08;;;11.48;;
22298;SDS011;11317;51.072;17.036;2022-09-30T04:36:02;19.95;;;10.63;;
22298;SDS011;11317;51.072;17.036;2022-09-30T04:38:28;24.27;;;11.38;;
22298;SDS011;11317;51.072;17.036;2022-09-30T04:40:54;20.08;;;11.20;;
22298;SDS011;11317;51.072;17.036;2022-09-30T04:43:20;21.40;;;9.60;;
22298;SDS011;11317;51.072;17.036;2022-09-30T04:45:47;22.60;;;10.32;;
22298;SDS011;11317;51.072;17.036;2022-09-30T04:48:14;22.77;;;11.82;;
22298;SDS011;11317;51.072;17.036;2022-09-30T04:50:40;21.23;;;12.23;;
22298;SDS011;11317;51.072;17.036;2022-09-30T04:53:07;20.70;;;10.65;;
22298;SDS011;11317;51.072;17.036;2022-09-30T04:55:35;19.92;;;10.77;;
22298;SDS011;11317;51.072;17.036;2022-09-30T04:58:01;21.30;;;11.07;;
22298;SDS011;11317;51.072;17.036;2022-09-30T05:00:27;22.60;;;10.68;;
22298;SDS011;11317;51.072;17.036;2022-09-30T05:02:53;18.63;;;9.95;;
22298;SDS011;11317;51.072;17.036;2022-09-30T05:05:19;21.75;;;11.18;;
22298;SDS011;11317;51.072;17.036;2022-09-30T05:07:45;20.63;;;11.02;;
22298;SDS011;11317;51.072;17.036;2022-09-30T05:10:11;21.13;;;10.02;;
22298;SDS011;11317;51.072;17.036;2022-09-30T05:12:38;17.20;;;10.38;;
22298;SDS011;11317;51.072;17.036;2022-09-30T05:15:05;19.92;;;10.85;;
22298;SDS011;11317;51.072;17.036;2022-09-30T05:17:31;20.48;;;11.27;;
22298;SDS011;11317;51.072;17.036;2022-09-30T05:19:57;16.67;;;10.57;;
22298;SDS011;11317;51.072;17.036;2022-09-30T05:22:24;19.70;;;11.95;;
22298;SDS011;11317;51.072;17.036;2022-09-30T05:24:50;19.55;;;11.45;;
22298;SDS011;11317;51.072;17.036;2022-09-30T05:27:17;20.13;;;10.93;;
22298;SDS011;11317;51.072;17.036;2022-09-30T05:29:43;25.70;;;12.18;;
22298;SDS011;11317;51.072;17.036;2022-09-30T05:32:10;24.73;;;11.60;;
22298;SDS011;11317;51.072;17.036;2022-09-30T05:34:36;23.70;;;11.93;;
22298;SDS011;11317;51.072;17.036;2022-09-30T05:37:03;18.10;;;11.15;;
22298;SDS011;11317;51.072;17.036;2022-09-30T05:39:29;22.38;;;11.60;;
22298;SDS011;11317;51.072;17.036;2022-09-30T05:41:56;21.40;;;12.27;;
22298;SDS011;11317;51.072;17.036;2022-09-30T05:44:24;22.95;;;11.70;;
22298;SDS011;11317;51.072;17.036;2022-09-30T05:46:50;23.52;;;11.90;;
22298;SDS011;11317;51.072;17.036;2022-09-30T05:49:16;21.70;;;12.35;;
22298;SDS011;11317;51.072;17.036;2022-09-30T05:51:42;22.23;;;11.95;;
22298;SDS011;11317;51.072;17.036;2022-09-30T05:54:09;20.80;;;12.15;;
22298;SDS011;11317;51.072;17.036;2022-09-30T05:56:35;19.77;;;11.77;;
22298;SDS011;11317;51.072;17.036;2022-09-30T05:59:05;17.60;;;11.30;;
22298;SDS011;11317;51.072;17.036;2022-09-30T06:01:31;24.60;;;12.45;;
22298;SDS011;11317;51.072;17.036;2022-09-30T06:03:57;18.33;;;10.50;;
22298;SDS011;11317;51.072;17.036;2022-09-30T06:06:23;24.52;;;11.52;;
22298;SDS011;11317;51.072;17.036;2022-09-30T06:08:49;21.38;;;12.23;;
22298;SDS011;11317;51.072;17.036;2022-09-30T06:11:16;22.00;;;11.80;;
22298;SDS011;11317;51.072;17.036;2022-09-30T06:13:44;20.75;;;11.27;;
22298;SDS011;11317;51.072;17.036;2022-09-30T06:16:11;24.77;;;12.45;;
22298;SDS011;11317;51.072;17.036;2022-09-30T06:18:37;21.90;;;12.27;;
22298;SDS011;11317;51.072;17.036;2022-09-30T06:21:05;23.58;;;11.80;;
22298;SDS011;11317;51.072;17.036;2022-09-30T06:23:33;21.42;;;11.55;;
22298;SDS011;11317;51.072;17.036;2022-09-30T06:25:59;21.40;;;11.55;;
22298;SDS011;11317;51.072;17.036;2022-09-30T06:28:26;21.05;;;11.85;;
22298;SDS011;11317;51.072;17.036;2022-09-30T06:30:52;18.77;;;11.50;;
22298;SDS011;11317;51.072;17.036;2022-09-30T06:33:19;22.88;;;11.68;;
22298;SDS011;11317;51.072;17.036;2022-09-30T06:35:44;21.38;;;11.10;;
22298;SDS011;11317;51.072;17.036;2022-09-30T06:38:12;21.95;;;12.90;;
22298;SDS011;11317;51.072;17.036;2022-09-30T06:40:40;25.83;;;12.35;;
22298;SDS011;11317;51.072;17.036;2022-09-30T06:43:07;19.40;;;11.57;;
22298;SDS011;11317;51.072;17.036;2022-09-30T06:45:34;21.17;;;11.70;;
22298;SDS011;11317;51.072;17.036;2022-09-30T06:48:00;18.77;;;11.00;;
22298;SDS011;11317;51.072;17.036;2022-09-30T06:50:28;27.20;;;12.95;;
22298;SDS011;11317;51.072;17.036;2022-09-30T06:53:01;19.45;;;12.13;;
22298;SDS011;11317;51.072;17.036;2022-09-30T06:55:30;23.48;;;12.95;;
22298;SDS011;11317;51.072;17.036;2022-09-30T06:57:56;21.73;;;12.82;;
22298;SDS011;11317;51.072;17.036;2022-09-30T07:00:23;25.40;;;13.27;;
22298;SDS011;11317;51.072;17.036;2022-09-30T07:02:49;23.23;;;13.52;;
22298;SDS011;11317;51.072;17.036;2022-09-30T07:05:15;25.13;;;14.70;;
22298;SDS011;11317;51.072;17.036;2022-09-30T07:07:42;24.70;;;14.18;;
22298;SDS011;11317;51.072;17.036;2022-09-30T07:10:08;23.42;;;12.75;;
22298;SDS011;11317;51.072;17.036;2022-09-30T07:12:34;21.30;;;12.95;;
22298;SDS011;11317;51.072;17.036;2022-09-30T07:15:00;22.75;;;12.55;;
22298;SDS011;11317;51.072;17.036;2022-09-30T07:17:26;19.88;;;12.25;;
22298;SDS011;11317;51.072;17.036;2022-09-30T07:19:53;19.83;;;11.68;;
22298;SDS011;11317;51.072;17.036;2022-09-30T07:22:19;21.42;;;11.35;;
22298;SDS011;11317;51.072;17.036;2022-09-30T07:24:55;20.57;;;11.70;;
22298;SDS011;11317;51.072;17.036;2022-09-30T07:27:23;21.52;;;11.45;;
22298;SDS011;11317;51.072;17.036;2022-09-30T07:29:50;18.40;;;10.82;;
22298;SDS011;11317;51.072;17.036;2022-09-30T07:32:16;18.25;;;11.18;;
22298;SDS011;11317;51.072;17.036;2022-09-30T07:34:43;20.33;;;11.48;;
22298;SDS011;11317;51.072;17.036;2022-09-30T07:37:10;24.00;;;11.35;;
22298;SDS011;11317;51.072;17.036;2022-09-30T07:39:39;19.80;;;11.65;;
22298;SDS011;11317;51.072;17.036;2022-09-30T07:42:06;21.83;;;12.60;;
22298;SDS011;11317;51.072;17.036;2022-09-30T07:44:32;19.75;;;11.65;;
22298;SDS011;11317;51.072;17.036;2022-09-30T07:47:01;19.60;;;10.68;;
22298;SDS011;11317;51.072;17.036;2022-09-30T07:49:27;19.98;;;12.55;;
22298;SDS011;11317;51.072;17.036;2022-09-30T07:51:57;21.95;;;12.55;;
22298;SDS011;11317;51.072;17.036;2022-09-30T07:54:24;20.38;;;11.40;;
22298;SDS011;11317;51.072;17.036;2022-09-30T07:56:52;21.60;;;11.38;;
22298;SDS011;11317;51.072;17.036;2022-09-30T07:59:19;24.70;;;12.80;;
22298;SDS011;11317;51.072;17.036;2022-09-30T08:01:45;24.17;;;12.85;;
22298;SDS011;11317;51.072;17.036;2022-09-30T08:04:13;20.80;;;11.07;;
22298;SDS011;11317;51.072;17.036;2022-09-30T08:23:51;22.98;;;12.50;;
22298;SDS011;11317;51.072;17.036;2022-09-30T08:26:17;22.25;;;12.70;;
22298;SDS011;11317;51.072;17.036;2022-09-30T08:28:44;27.48;;;14.52;;
22298;SDS011;11317;51.072;17.036;2022-09-30T08:31:14;18.85;;;11.95;;
22298;SDS011;11317;51.072;17.036;2022-09-30T08:33:44;22.52;;;11.63;;
22298;SDS011;11317;51.072;17.036;2022-09-30T08:36:12;23.92;;;12.15;;
22298;SDS011;11317;51.072;17.036;2022-09-30T08:38:48;20.30;;;11.80;;
22298;SDS011;11317;51.072;17.036;2022-09-30T08:46:59;21.30;;;11.50;;
22298;SDS011;11317;51.072;17.036;2022-09-30T08:52:06;21.85;;;11.35;;
22298;SDS011;11317;51.072;17.036;2022-09-30T08:54:37;20.20;;;11.80;;
22298;SDS011;11317;51.072;17.036;2022-09-30T08:57:09;19.60;;;12.05;;
22298;SDS011;11317;51.072;17.036;2022-09-30T08:59:41;18.73;;;12.13;;
22298;SDS011;11317;51.072;17.036;2022-09-30T09:05:01;23.52;;;11.75;;
22298;SDS011;11317;51.072;17.036;2022-09-30T09:07:35;16.25;;;11.05;;
22298;SDS011;11317;51.072;17.036;2022-09-30T09:10:39;20.58;;;11.88;;
22298;SDS011;11317;51.072;17.036;2022-09-30T09:13:15;21.70;;;11.15;;
22298;SDS011;11317;51.072;17.036;2022-09-30T09:18:22;16.45;;;11.00;;
22298;SDS011;11317;51.072;17.036;2022-09-30T09:20:55;17.67;;;10.38;;
22298;SDS011;11317;51.072;17.036;2022-09-30T09:23:23;19.25;;;11.50;;
22298;SDS011;11317;51.072;17.036;2022-09-30T09:25:49;19.25;;;10.55;;
22298;SDS011;11317;51.072;17.036;2022-09-30T09:28:36;18.73;;;11.27;;
22298;SDS011;11317;51.072;17.036;2022-09-30T09:31:12;19.00;;;10.65;;
22298;SDS011;11317;51.072;17.036;2022-09-30T09:33:42;19.58;;;11.95;;
22298;SDS011;11317;51.072;17.036;2022-09-30T09:39:21;21.70;;;12.07;;
22298;SDS011;11317;51.072;17.036;2022-09-30T09:41:57;18.88;;;11.60;;
22298;SDS011;11317;51.072;17.036;2022-09-30T09:44:44;17.40;;;11.98;;
22298;SDS011;11317;51.072;17.036;2022-09-30T09:47:22;22.00;;;12.68;;
22298;SDS011;11317;51.072;17.036;2022-09-30T09:49:49;19.15;;;11.43;;
22298;SDS011;11317;51.072;17.036;2022-09-30T09:55:25;18.67;;;11.38;;
22298;SDS011;11317;51.072;17.036;2022-09-30T09:58:03;23.73;;;12.60;;
22298;SDS011;11317;51.072;17.036;2022-09-30T10:00:30;21.02;;;11.88;;
22298;SDS011;11317;51.072;17.036;2022-09-30T10:03:13;18.05;;;11.45;;
22298;SDS011;11317;51.072;17.036;2022-09-30T10:08:32;18.73;;;10.75;;
22298;SDS011;11317;51.072;17.036;2022-09-30T10:11:01;18.80;;;10.30;;
22298;SDS011;11317;51.072;17.036;2022-09-30T10:16:03;18.98;;;10.32;;
22298;SDS011;11317;51.072;17.036;2022-09-30T10:18:33;17.92;;;10.02;;
22298;SDS011;11317;51.072;17.036;2022-09-30T10:21:06;16.20;;;9.43;;
22298;SDS011;11317;51.072;17.036;2022-09-30T10:23:52;13.55;;;9.13;;
22298;SDS011;11317;51.072;17.036;2022-09-30T10:28:51;15.15;;;8.55;;
22298;SDS011;11317;51.072;17.036;2022-09-30T10:36:42;12.07;;;6.95;;
22298;SDS011;11317;51.072;17.036;2022-09-30T10:42:03;10.77;;;7.05;;
22298;SDS011;11317;51.072;17.036;2022-09-30T10:44:55;12.30;;;6.72;;
22298;SDS011;11317;51.072;17.036;2022-09-30T10:47:26;8.73;;;6.38;;
22298;SDS011;11317;51.072;17.036;2022-09-30T10:49:58;10.15;;;6.45;;
22298;SDS011;11317;51.072;17.036;2022-09-30T10:52:46;9.98;;;6.38;;
22298;SDS011;11317;51.072;17.036;2022-09-30T10:55:26;9.40;;;5.57;;
22298;SDS011;11317;51.072;17.036;2022-09-30T10:57:57;9.15;;;5.93;;
22298;SDS011;11317;51.072;17.036;2022-09-30T11:00:46;13.70;;;6.30;;
22298;SDS011;11317;51.072;17.036;2022-09-30T11:03:16;8.90;;;5.22;;
22298;SDS011;11317;51.072;17.036;2022-09-30T11:05:47;9.25;;;5.55;;
22298;SDS011;11317;51.072;17.036;2022-09-30T11:11:10;7.60;;;4.88;;
22298;SDS011;11317;51.072;17.036;2022-09-30T11:16:17;6.90;;;4.57;;
22298;SDS011;11317;51.072;17.036;2022-09-30T11:19:06;8.77;;;4.95;;
22298;SDS011;11317;51.072;17.036;2022-09-30T11:21:41;8.65;;;4.57;;
22298;SDS011;11317;51.072;17.036;2022-09-30T11:24:33;5.82;;;4.28;;
22298;SDS011;11317;51.072;17.036;2022-09-30T11:48:39;5.40;;;3.25;;
22298;SDS011;11317;51.072;17.036;2022-09-30T11:56:39;4.40;;;2.88;;
22298;SDS011;11317;51.072;17.036;2022-09-30T11:59:20;4.15;;;3.00;;
22298;SDS011;11317;51.072;17.036;2022-09-30T12:01:53;4.15;;;2.72;;
22298;SDS011;11317;51.072;17.036;2022-09-30T12:04:27;4.57;;;2.90;;
22298;SDS011;11317;51.072;17.036;2022-09-30T12:07:16;4.85;;;2.72;;
22298;SDS011;11317;51.072;17.036;2022-09-30T12:09:44;4.20;;;2.78;;
22298;SDS011;11317;51.072;17.036;2022-09-30T12:12:11;3.70;;;2.63;;
22298;SDS011;11317;51.072;17.036;2022-09-30T12:14:42;4.20;;;3.13;;
22298;SDS011;11317;51.072;17.036;2022-09-30T12:20:01;3.95;;;2.55;;
22298;SDS011;11317;51.072;17.036;2022-09-30T12:22:38;5.15;;;2.88;;
22298;SDS011;11317;51.072;17.036;2022-09-30T12:25:27;5.88;;;3.72;;
22298;SDS011;11317;51.072;17.036;2022-09-30T12:31:05;4.65;;;3.35;;
22298;SDS011;11317;51.072;17.036;2022-09-30T12:36:47;5.82;;;3.13;;
22298;SDS011;11317;51.072;17.036;2022-09-30T12:39:25;5.55;;;3.25;;
22298;SDS011;11317;51.072;17.036;2022-09-30T12:44:58;6.63;;;3.80;;
22298;SDS011;11317;51.072;17.036;2022-09-30T12:47:50;5.90;;;3.22;;
22298;SDS011;11317;51.072;17.036;2022-09-30T12:50:25;4.68;;;3.03;;
22298;SDS011;11317;51.072;17.036;2022-09-30T12:55:31;6.28;;;3.05;;
22298;SDS011;11317;51.072;17.036;2022-09-30T12:58:04;4.03;;;2.67;;
22298;SDS011;11317;51.072;17.036;2022-09-30T13:00:31;5.55;;;3.13;;
22298;SDS011;11317;51.072;17.036;2022-09-30T13:03:02;7.03;;;3.25;;
22298;SDS011;11317;51.072;17.036;2022-09-30T13:10:45;4.38;;;3.17;;
22298;SDS011;11317;51.072;17.036;2022-09-30T13:13:23;7.25;;;3.22;;
22298;SDS011;11317;51.072;17.036;2022-09-30T13:15:52;7.25;;;3.83;;
22298;SDS011;11317;51.072;17.036;2022-09-30T13:26:31;4.50;;;2.78;;
22298;SDS011;11317;51.072;17.036;2022-09-30T13:31:31;5.25;;;2.70;;
22298;SDS011;11317;51.072;17.036;2022-09-30T13:34:20;3.47;;;2.92;;
22298;SDS011;11317;51.072;17.036;2022-09-30T13:47:36;7.18;;;3.90;;
22298;SDS011;11317;51.072;17.036;2022-09-30T13:52:41;4.93;;;3.35;;
22298;SDS011;11317;51.072;17.036;2022-09-30T13:55:20;3.67;;;2.70;;
22298;SDS011;11317;51.072;17.036;2022-09-30T14:07:01;6.25;;;3.15;;
22298;SDS011;11317;51.072;17.036;2022-09-30T14:12:20;3.45;;;2.83;;
22298;SDS011;11317;51.072;17.036;2022-09-30T14:18:28;4.75;;;3.08;;
22298;SDS011;11317;51.072;17.036;2022-09-30T14:24:02;4.30;;;3.10;;
22298;SDS011;11317;51.072;17.036;2022-09-30T14:29:16;3.65;;;2.63;;
22298;SDS011;11317;51.072;17.036;2022-09-30T14:31:54;5.28;;;3.17;;
22298;SDS011;11317;51.072;17.036;2022-09-30T14:34:23;4.63;;;2.97;;
22298;SDS011;11317;51.072;17.036;2022-09-30T14:36:50;4.32;;;3.13;;
22298;SDS011;11317;51.072;17.036;2022-09-30T14:39:19;4.15;;;2.95;;
22298;SDS011;11317;51.072;17.036;2022-09-30T14:41:56;7.43;;;3.40;;
22298;SDS011;11317;51.072;17.036;2022-09-30T14:44:26;4.03;;;2.78;;
22298;SDS011;11317;51.072;17.036;2022-09-30T14:46:55;4.72;;;3.10;;
22298;SDS011;11317;51.072;17.036;2022-09-30T14:49:26;5.00;;;3.25;;
22298;SDS011;11317;51.072;17.036;2022-09-30T14:51:58;3.50;;;2.80;;
22298;SDS011;11317;51.072;17.036;2022-09-30T14:54:27;4.45;;;3.05;;
22298;SDS011;11317;51.072;17.036;2022-09-30T14:56:54;5.10;;;3.20;;
22298;SDS011;11317;51.072;17.036;2022-09-30T14:59:25;4.60;;;3.00;;
22298;SDS011;11317;51.072;17.036;2022-09-30T15:01:59;4.22;;;3.22;;
22298;SDS011;11317;51.072;17.036;2022-09-30T15:04:37;4.72;;;3.00;;
22298;SDS011;11317;51.072;17.036;2022-09-30T15:07:09;4.07;;;2.97;;
22298;SDS011;11317;51.072;17.036;2022-09-30T15:09:39;6.10;;;2.78;;
22298;SDS011;11317;51.072;17.036;2022-09-30T15:12:15;6.35;;;3.15;;
22298;SDS011;11317;51.072;17.036;2022-09-30T15:17:17;4.40;;;2.70;;
22298;SDS011;11317;51.072;17.036;2022-09-30T15:19:46;6.35;;;3.20;;
22298;SDS011;11317;51.072;17.036;2022-09-30T15:22:14;4.95;;;2.72;;
22298;SDS011;11317;51.072;17.036;2022-09-30T15:24:41;6.10;;;2.45;;
22298;SDS011;11317;51.072;17.036;2022-09-30T15:27:13;4.00;;;3.03;;
22298;SDS011;11317;51.072;17.036;2022-09-30T15:29:53;5.43;;;2.90;;
22298;SDS011;11317;51.072;17.036;2022-09-30T15:32:47;4.20;;;2.70;;
22298;SDS011;11317;51.072;17.036;2022-09-30T15:35:18;3.83;;;2.53;;
22298;SDS011;11317;51.072;17.036;2022-09-30T15:37:46;4.50;;;2.60;;
22298;SDS011;11317;51.072;17.036;2022-09-30T15:40:13;4.50;;;2.25;;
22298;SDS011;11317;51.072;17.036;2022-09-30T15:43:00;4.63;;;2.65;;
22298;SDS011;11317;51.072;17.036;2022-09-30T15:45:31;5.75;;;2.80;;
22298;SDS011;11317;51.072;17.036;2022-09-30T15:48:45;4.10;;;2.75;;
22298;SDS011;11317;51.072;17.036;2022-09-30T15:50:50;4.60;;;2.75;;
22298;SDS011;11317;51.072;17.036;2022-09-30T15:55:52;3.72;;;3.05;;
22298;SDS011;11317;51.072;17.036;2022-09-30T16:06:22;5.78;;;3.00;;
22298;SDS011;11317;51.072;17.036;2022-09-30T16:09:00;4.65;;;3.08;;
22298;SDS011;11317;51.072;17.036;2022-09-30T16:11:36;5.43;;;2.92;;
22298;SDS011;11317;51.072;17.036;2022-09-30T16:14:07;4.38;;;2.85;;
22298;SDS011;11317;51.072;17.036;2022-09-30T16:16:42;4.90;;;2.60;;
22298;SDS011;11317;51.072;17.036;2022-09-30T16:19:17;3.97;;;2.67;;
22298;SDS011;11317;51.072;17.036;2022-09-30T16:21:47;4.50;;;3.13;;
22298;SDS011;11317;51.072;17.036;2022-09-30T16:26:53;5.03;;;3.58;;
22298;SDS011;11317;51.072;17.036;2022-09-30T16:29:20;4.03;;;2.70;;
22298;SDS011;11317;51.072;17.036;2022-09-30T16:31:47;5.45;;;3.60;;
22298;SDS011;11317;51.072;17.036;2022-09-30T16:34:25;10.05;;;4.85;;
22298;SDS011;11317;51.072;17.036;2022-09-30T16:36:53;7.90;;;4.72;;
22298;SDS011;11317;51.072;17.036;2022-09-30T16:39:26;10.18;;;4.82;;
22298;SDS011;11317;51.072;17.036;2022-09-30T16:41:52;13.15;;;5.40;;
22298;SDS011;11317;51.072;17.036;2022-09-30T16:44:18;10.23;;;6.15;;
22298;SDS011;11317;51.072;17.036;2022-09-30T16:46:48;10.38;;;5.65;;
22298;SDS011;11317;51.072;17.036;2022-09-30T16:49:16;9.60;;;5.50;;
22298;SDS011;11317;51.072;17.036;2022-09-30T16:51:42;11.85;;;6.75;;
22298;SDS011;11317;51.072;17.036;2022-09-30T16:54:09;12.30;;;6.20;;
22298;SDS011;11317;51.072;17.036;2022-09-30T16:56:36;11.70;;;7.03;;
22298;SDS011;11317;51.072;17.036;2022-09-30T16:59:02;11.43;;;6.72;;
22298;SDS011;11317;51.072;17.036;2022-09-30T17:01:31;13.68;;;7.28;;
22298;SDS011;11317;51.072;17.036;2022-09-30T17:03:57;13.07;;;7.03;;
22298;SDS011;11317;51.072;17.036;2022-09-30T17:06:24;12.85;;;6.85;;
22298;SDS011;11317;51.072;17.036;2022-09-30T17:08:55;17.50;;;7.63;;
22298;SDS011;11317;51.072;17.036;2022-09-30T17:11:23;16.70;;;7.32;;
22298;SDS011;11317;51.072;17.036;2022-09-30T17:13:50;19.88;;;8.18;;
22298;SDS011;11317;51.072;17.036;2022-09-30T17:16:16;19.95;;;8.88;;
22298;SDS011;11317;51.072;17.036;2022-09-30T17:18:43;13.10;;;7.93;;
22298;SDS011;11317;51.072;17.036;2022-09-30T17:21:09;14.95;;;7.30;;
22298;SDS011;11317;51.072;17.036;2022-09-30T17:23:35;13.65;;;6.68;;
22298;SDS011;11317;51.072;17.036;2022-09-30T17:26:04;12.82;;;5.90;;
22298;SDS011;11317;51.072;17.036;2022-09-30T17:28:30;12.02;;;7.60;;
22298;SDS011;11317;51.072;17.036;2022-09-30T17:30:58;12.70;;;7.47;;
22298;SDS011;11317;51.072;17.036;2022-09-30T17:33:24;14.05;;;7.75;;
22298;SDS011;11317;51.072;17.036;2022-09-30T17:35:58;15.35;;;7.40;;
22298;SDS011;11317;51.072;17.036;2022-09-30T17:38:24;11.70;;;7.43;;
22298;SDS011;11317;51.072;17.036;2022-09-30T17:40:51;17.35;;;7.65;;
22298;SDS011;11317;51.072;17.036;2022-09-30T17:43:35;13.52;;;7.68;;
22298;SDS011;11317;51.072;17.036;2022-09-30T17:46:01;14.30;;;8.77;;
22298;SDS011;11317;51.072;17.036;2022-09-30T17:48:27;13.30;;;8.07;;
22298;SDS011;11317;51.072;17.036;2022-09-30T17:50:56;15.77;;;8.30;;
22298;SDS011;11317;51.072;17.036;2022-09-30T17:53:22;20.80;;;9.13;;
22298;SDS011;11317;51.072;17.036;2022-09-30T17:55:58;23.25;;;10.68;;
22298;SDS011;11317;51.072;17.036;2022-09-30T17:58:26;19.08;;;9.70;;
22298;SDS011;11317;51.072;17.036;2022-09-30T18:00:53;20.20;;;10.15;;
22298;SDS011;11317;51.072;17.036;2022-09-30T18:03:22;23.65;;;11.07;;
22298;SDS011;11317;51.072;17.036;2022-09-30T18:05:55;22.75;;;10.45;;
22298;SDS011;11317;51.072;17.036;2022-09-30T18:08:22;26.17;;;10.80;;
22298;SDS011;11317;51.072;17.036;2022-09-30T18:10:49;21.35;;;11.18;;
22298;SDS011;11317;51.072;17.036;2022-09-30T18:13:16;16.70;;;9.50;;
22298;SDS011;11317;51.072;17.036;2022-09-30T18:15:43;17.92;;;10.02;;
22298;SDS011;11317;51.072;17.036;2022-09-30T18:18:09;19.98;;;10.52;;
22298;SDS011;11317;51.072;17.036;2022-09-30T18:20:35;14.40;;;8.27;;
22298;SDS011;11317;51.072;17.036;2022-09-30T18:23:01;21.05;;;10.88;;
22298;SDS011;11317;51.072;17.036;2022-09-30T18:25:27;18.98;;;10.02;;
22298;SDS011;11317;51.072;17.036;2022-09-30T18:27:57;18.50;;;10.50;;